Time;durP1;ratioP1;P1;durP2;ratioP2;P2;SDS_P1;SDS_P2;PMS_P1;PMS_P2;Temp;Humidity;BMP_temperature;BMP_pressure;BME280_temperature;BME280_humidity;BME280_pressure;Samples;Min_cycle;Max_cycle;Signal;HPM_P1;HPM_P2
2023/05/15 00:01:57;;;;;;;;;17.50;17.50;;;;;14.29;69.24;101599.38;5047338;28;10019;-65
2023/05/15 00:04:23;;;;;;;;;18.50;16.75;;;;;14.28;69.25;101600.44;5050267;28;10237;-65
2023/05/15 00:06:50;;;;;;;;;18.75;16.50;;;;;14.27;69.44;101591.47;5048588;28;10194;-66
2023/05/15 00:09:16;;;;;;;;;24.00;20.50;;;;;14.25;69.19;101582.69;5040209;28;10092;-66
2023/05/15 00:11:43;;;;;;;;;22.00;18.25;;;;;14.22;69.47;101583.13;5040276;28;10226;-66
2023/05/15 00:14:09;;;;;;;;;27.75;19.50;;;;;14.22;69.70;101577.72;5047445;28;10312;-65
2023/05/15 00:16:36;;;;;;;;;24.75;20.00;;;;;14.20;69.45;101571.63;5022248;28;10090;-66
2023/05/15 00:19:02;;;;;;;;;19.50;17.75;;;;;14.17;69.22;101577.44;5045422;28;10224;-65
2023/05/15 00:21:29;;;;;;;;;24.50;21.25;;;;;14.14;69.50;101577.00;5046283;28;10128;-66
2023/05/15 00:23:57;;;;;;;;;24.00;21.50;;;;;14.12;69.56;101566.41;5029307;28;10807;-66
2023/05/15 00:26:23;;;;;;;;;23.25;20.75;;;;;14.10;69.67;101565.78;5036998;28;10170;-66
2023/05/15 00:28:50;;;;;;;;;34.00;26.75;;;;;14.08;69.58;101559.69;5032443;28;10302;-66
2023/05/15 00:31:17;;;;;;;;;26.50;20.00;;;;;14.05;69.58;101546.56;5032482;28;10447;-66
2023/05/15 00:33:43;;;;;;;;;26.75;23.50;;;;;14.02;70.05;101545.09;5049949;28;10423;-66
2023/05/15 00:36:10;;;;;;;;;25.25;19.25;;;;;14.00;69.64;101547.16;5049534;28;10407;-66
2023/05/15 00:38:36;;;;;;;;;26.50;23.25;;;;;13.98;69.63;101545.72;5032192;28;10957;-66
2023/05/15 00:41:05;;;;;;;;;26.00;23.00;;;;;13.97;69.92;101541.31;5048930;28;10247;-66
2023/05/15 00:43:31;;;;;;;;;21.00;15.00;;;;;13.94;69.80;101545.28;5032146;28;10478;-65
2023/05/15 00:45:58;;;;;;;;;30.00;23.50;;;;;13.95;69.90;101544.22;5031307;28;10189;-66
2023/05/15 00:48:27;;;;;;;;;31.75;27.75;;;;;13.93;69.91;101545.44;5031792;28;10303;-66
2023/05/15 00:50:57;;;;;;;;;27.25;25.25;;;;;13.91;69.96;101544.81;5048828;28;10422;-66
2023/05/15 00:53:25;;;;;;;;;25.00;24.00;;;;;13.89;69.86;101538.75;5048515;28;10330;-66
2023/05/15 00:55:56;;;;;;;;;28.50;25.50;;;;;13.87;70.06;101541.69;5028429;28;10304;-66
2023/05/15 00:58:25;;;;;;;;;31.25;28.50;;;;;13.87;70.04;101548.97;5045286;28;10274;-66
2023/05/15 01:00:52;;;;;;;;;26.50;24.50;;;;;13.84;69.99;101544.78;5012142;28;11116;-66
2023/05/15 01:03:19;;;;;;;;;27.25;23.00;;;;;13.82;70.36;101546.84;5030453;28;10340;-65
2023/05/15 01:05:46;;;;;;;;;24.25;23.25;;;;;13.79;70.23;101545.38;5031821;28;10162;-66
2023/05/15 01:08:22;;;;;;;;;33.00;29.00;;;;;13.76;70.40;101539.53;5031783;28;11110;-65
2023/05/15 01:10:50;;;;;;;;;21.50;21.50;;;;;13.73;70.32;101534.50;5048654;28;10495;-65
2023/05/15 01:13:20;;;;;;;;;29.75;24.75;;;;;13.71;70.30;101537.41;5049231;28;10338;-66
2023/05/15 01:15:48;;;;;;;;;32.00;28.50;;;;;13.70;70.45;101540.31;5031722;28;11086;-66
2023/05/15 01:18:15;;;;;;;;;32.75;30.50;;;;;13.68;70.45;101528.84;5031537;28;10331;-66
2023/05/15 01:21:01;;;;;;;;;27.00;23.75;;;;;13.67;70.59;101538.00;5048021;28;10617;-66
2023/05/15 01:23:49;;;;;;;;;23.25;22.75;;;;;13.65;70.54;101545.47;5029867;28;10389;-66
2023/05/15 01:26:34;;;;;;;;;28.50;27.00;;;;;13.61;70.68;101539.63;5012850;28;10353;-66
2023/05/15 01:29:13;;;;;;;;;32.00;27.00;;;;;13.57;70.54;101544.63;5029808;28;10529;-65
2023/05/15 01:31:44;;;;;;;;;25.25;23.00;;;;;13.54;70.56;101539.59;5043539;28;10594;-67
2023/05/15 01:34:13;;;;;;;;;30.50;29.00;;;;;13.52;70.83;101538.09;5052901;28;10410;-65
2023/05/15 01:36:50;;;;;;;;;29.75;28.00;;;;;13.49;70.86;101541.19;5053324;28;10490;-66
2023/05/15 01:39:22;;;;;;;;;32.00;27.50;;;;;13.46;71.12;101536.19;5053477;28;10625;-65
2023/05/15 01:41:54;;;;;;;;;21.00;18.25;;;;;13.45;71.11;101546.19;5053601;28;10491;-65
2023/05/15 01:44:27;;;;;;;;;33.00;24.00;;;;;13.44;71.36;101544.50;5053232;28;10397;-66
2023/05/15 01:46:58;;;;;;;;;26.75;22.25;;;;;13.43;71.31;101532.00;5052915;28;10386;-66
2023/05/15 01:49:27;;;;;;;;;24.50;23.25;;;;;13.43;71.34;101531.19;5053047;28;10321;-66
2023/05/15 01:52:24;;;;;;;;;24.25;21.50;;;;;13.41;71.38;101530.50;5051952;28;10179;-65
2023/05/15 01:54:51;;;;;;;;;24.25;21.50;;;;;13.38;71.51;101528.22;5026859;28;10992;-66
2023/05/15 01:57:19;;;;;;;;;24.00;19.00;;;;;13.37;71.64;101527.41;5034781;28;10439;-66
2023/05/15 01:59:46;;;;;;;;;27.00;20.25;;;;;13.38;71.91;101528.22;5035336;28;10256;-65
2023/05/15 02:02:14;;;;;;;;;25.25;24.75;;;;;13.35;72.13;101522.16;5035261;28;10056;-67
2023/05/15 02:04:44;;;;;;;;;29.00;27.75;;;;;13.33;71.93;101526.13;5034332;28;10346;-66
2023/05/15 02:07:12;;;;;;;;;22.25;20.75;;;;;13.34;72.20;101527.78;5043336;28;10408;-65
2023/05/15 02:09:41;;;;;;;;;26.00;21.50;;;;;13.32;72.19;101522.53;5035186;28;10476;-65
2023/05/15 02:12:09;;;;;;;;;27.25;26.50;;;;;13.30;72.32;101527.34;5051757;28;10565;-65
2023/05/15 02:14:37;;;;;;;;;26.50;23.00;;;;;13.31;72.32;101531.69;5034560;28;10485;-65
2023/05/15 02:17:04;;;;;;;;;23.00;23.00;;;;;13.29;72.59;101525.66;5014846;28;10442;-65
2023/05/15 02:19:31;;;;;;;;;20.75;18.25;;;;;13.31;72.71;101520.06;5015256;28;10539;-65
2023/05/15 02:21:58;;;;;;;;;26.25;22.00;;;;;13.30;72.37;101530.03;5022457;28;10309;-65
2023/05/15 02:24:25;;;;;;;;;2.25;2.00;;;;;13.27;72.53;101522.31;5015514;28;10337;-65
2023/05/15 02:27:01;;;;;;;;;25.75;25.25;;;;;13.26;72.47;101525.22;5016863;28;10237;-65
2023/05/15 02:29:39;;;;;;;;;24.00;23.25;;;;;13.25;72.48;101523.56;5050014;28;11284;-65
2023/05/15 02:32:31;;;;;;;;;26.75;22.25;;;;;13.23;72.46;101525.59;5051426;28;10349;-65
2023/05/15 02:35:23;;;;;;;;;22.50;22.50;;;;;13.19;72.82;101525.13;5050811;28;10471;-65
2023/05/15 02:37:55;;;;;;;;;26.75;26.00;;;;;13.18;72.69;101526.16;5051305;28;10479;-65
2023/05/15 02:40:25;;;;;;;;;25.25;25.25;;;;;13.17;72.87;101526.38;5018333;28;10322;-65
2023/05/15 02:42:53;;;;;;;;;27.75;21.75;;;;;13.16;72.82;101527.38;5030542;28;10431;-65
2023/05/15 02:45:22;;;;;;;;;22.75;17.75;;;;;13.11;72.75;101523.38;5013737;28;10270;-65
2023/05/15 02:47:50;;;;;;;;;20.75;19.50;;;;;13.09;72.92;101525.47;5038496;28;10277;-65
2023/05/15 02:50:17;;;;;;;;;19.50;17.75;;;;;13.08;73.17;101526.50;5031123;28;10397;-65
2023/05/15 02:52:44;;;;;;;;;23.00;22.50;;;;;13.07;73.08;101532.06;5034012;28;10218;-65
2023/05/15 02:55:10;;;;;;;;;24.75;21.25;;;;;13.04;73.17;101522.47;5033709;28;10418;-65
2023/05/15 02:57:37;;;;;;;;;23.50;20.25;;;;;13.04;73.03;101519.78;5034089;28;10258;-65
2023/05/15 03:00:06;;;;;;;;;21.75;20.50;;;;;13.05;73.04;101512.53;5017351;28;10400;-65
2023/05/15 03:02:32;;;;;;;;;26.00;24.25;;;;;13.02;72.97;101512.91;5052150;28;10568;-66
2023/05/15 03:04:59;;;;;;;;;23.75;21.00;;;;;13.00;72.69;101509.56;5016948;28;10515;-65
2023/05/15 03:07:26;;;;;;;;;26.00;22.50;;;;;13.00;72.80;101498.75;5045806;28;10329;-65
2023/05/15 03:09:52;;;;;;;;;19.00;18.00;;;;;13.03;72.89;101503.75;5030661;28;10431;-66
2023/05/15 03:12:19;;;;;;;;;22.75;22.00;;;;;13.02;72.42;101502.09;5041915;28;10159;-66
2023/05/15 03:14:45;;;;;;;;;23.00;20.25;;;;;13.01;72.16;101495.03;5051373;28;10490;-66
2023/05/15 03:17:12;;;;;;;;;24.25;23.75;;;;;12.99;72.29;101502.47;5021040;28;10310;-66
2023/05/15 03:19:38;;;;;;;;;23.75;23.50;;;;;12.98;72.19;101503.53;5048532;28;10327;-66
2023/05/15 03:22:06;;;;;;;;;26.75;25.75;;;;;12.96;72.18;101497.44;5043865;28;10417;-66
2023/05/15 03:24:32;;;;;;;;;24.00;22.00;;;;;12.94;72.23;101497.66;5033101;28;10374;-67
2023/05/15 03:26:58;;;;;;;;;22.25;21.00;;;;;12.92;72.00;101498.88;5033687;28;10348;-66
2023/05/15 03:29:25;;;;;;;;;24.75;22.25;;;;;12.92;72.09;101504.28;5033653;28;10400;-65
2023/05/15 03:31:51;;;;;;;;;24.50;22.75;;;;;12.90;72.18;101518.00;5033663;28;10379;-65
2023/05/15 03:34:18;;;;;;;;;23.00;21.75;;;;;12.90;72.09;101503.66;5032860;28;10506;-65
2023/05/15 03:36:46;;;;;;;;;26.75;21.75;;;;;12.87;72.27;101502.16;5051292;28;10493;-65
2023/05/15 03:39:12;;;;;;;;;25.25;23.75;;;;;12.83;72.31;101499.00;5051237;28;11197;-65
2023/05/15 03:41:39;;;;;;;;;20.25;19.25;;;;;12.82;72.36;101500.03;5049909;28;11276;-65
2023/05/15 03:44:05;;;;;;;;;29.00;24.75;;;;;12.83;72.23;101508.97;5033010;28;10462;-65
2023/05/15 03:46:32;;;;;;;;;23.00;21.50;;;;;12.79;72.43;101505.00;5050784;28;10638;-65
2023/05/15 03:48:58;;;;;;;;;24.50;24.00;;;;;12.77;72.49;101502.50;5051239;28;11267;-66
2023/05/15 03:51:25;;;;;;;;;18.75;18.75;;;;;12.76;72.35;101508.94;5033135;28;10553;-66
2023/05/15 03:53:52;;;;;;;;;26.50;22.75;;;;;12.74;72.54;101504.75;5032624;28;10387;-66
2023/05/15 03:56:21;;;;;;;;;25.00;23.00;;;;;12.75;72.53;101501.84;5032711;28;10476;-66
2023/05/15 03:58:48;;;;;;;;;30.00;28.75;;;;;12.72;72.44;101504.94;5032900;28;11188;-66
2023/05/15 04:01:14;;;;;;;;;30.50;26.25;;;;;12.70;72.67;101511.56;5032864;28;11405;-66
2023/05/15 04:03:41;;;;;;;;;27.00;26.50;;;;;12.66;72.71;101511.09;5050139;28;10809;-66
2023/05/15 04:06:07;;;;;;;;;28.00;25.00;;;;;12.63;72.53;101511.47;5050301;28;11424;-66
2023/05/15 04:08:34;;;;;;;;;22.75;20.25;;;;;12.63;72.64;101515.00;5045948;28;10645;-67
2023/05/15 04:11:00;;;;;;;;;29.00;24.75;;;;;12.62;72.76;101515.22;5033287;28;10540;-66
2023/05/15 04:13:41;;;;;;;;;23.25;19.25;;;;;12.61;72.93;101514.38;5050238;28;11345;-66
2023/05/15 04:16:08;;;;;;;;;29.25;26.75;;;;;12.66;73.04;101511.09;4970219;28;10589;-69
2023/05/15 04:18:35;;;;;;;;;40.75;32.00;;;;;12.68;72.79;101510.88;4954891;28;10684;-69
2023/05/15 04:21:02;;;;;;;;;31.00;29.25;;;;;12.71;72.81;101513.22;4971734;28;10704;-68
2023/05/15 04:23:28;;;;;;;;;33.25;30.50;;;;;12.72;72.41;101513.03;4972088;28;11441;-68
2023/05/15 04:25:55;;;;;;;;;30.75;29.50;;;;;12.75;72.69;101511.81;4990234;28;10818;-69
2023/05/15 04:28:22;;;;;;;;;29.25;27.75;;;;;12.76;72.26;101514.34;4991262;28;10757;-69
2023/05/15 04:30:48;;;;;;;;;33.75;32.25;;;;;12.74;72.14;101504.75;4991006;28;10781;-68
2023/05/15 04:33:15;;;;;;;;;43.00;37.25;;;;;12.70;71.98;101506.97;4973882;28;11119;-69
2023/05/15 04:35:42;;;;;;;;;37.50;34.25;;;;;12.66;71.63;101503.00;4989304;28;10902;-69
2023/05/15 04:38:08;;;;;;;;;40.50;33.00;;;;;12.62;71.98;101512.50;4989546;28;10743;-68
2023/05/15 04:40:35;;;;;;;;;35.00;31.75;;;;;12.56;72.15;101511.41;4991040;28;10778;-69
2023/05/15 04:43:02;;;;;;;;;41.00;36.25;;;;;12.58;72.23;101511.22;4972952;28;11411;-69
2023/05/15 04:45:29;;;;;;;;;38.75;35.75;;;;;12.61;71.96;101508.97;4989331;28;11224;-69
2023/05/15 04:47:55;;;;;;;;;36.50;36.50;;;;;12.64;71.88;101521.28;4990706;28;10856;-69
2023/05/15 04:50:22;;;;;;;;;41.75;36.50;;;;;12.61;71.71;101514.38;4990936;28;10748;-69
2023/05/15 04:52:48;;;;;;;;;36.75;34.25;;;;;12.57;71.73;101520.34;4973509;28;10910;-68
2023/05/15 04:55:15;;;;;;;;;44.50;40.00;;;;;12.51;72.13;101521.09;4990527;28;10760;-69
2023/05/15 04:57:42;;;;;;;;;37.00;35.50;;;;;12.52;71.88;101509.28;4990076;28;10919;-69
2023/05/15 05:00:11;;;;;;;;;48.25;42.75;;;;;12.49;71.71;101517.78;4991000;28;10826;-69
2023/05/15 05:02:38;;;;;;;;;41.50;36.25;;;;;12.52;71.50;101512.81;4990436;28;11021;-69
2023/05/15 05:05:06;;;;;;;;;36.25;32.50;;;;;12.55;71.67;101511.59;4990382;28;10838;-69
2023/05/15 05:07:33;;;;;;;;;40.50;36.75;;;;;12.56;71.40;101505.19;4985277;28;11139;-68
2023/05/15 05:10:01;;;;;;;;;37.75;32.50;;;;;12.60;71.56;101511.88;4990639;28;10893;-69
2023/05/15 05:12:27;;;;;;;;;34.75;31.50;;;;;12.60;71.50;101520.81;4990782;28;10908;-69
2023/05/15 05:14:55;;;;;;;;;27.75;26.00;;;;;12.61;71.33;101510.84;4990292;28;10972;-68
2023/05/15 05:17:22;;;;;;;;;39.50;35.00;;;;;12.66;71.25;101519.19;4990314;28;10637;-69
2023/05/15 05:19:48;;;;;;;;;47.25;37.25;;;;;12.69;70.96;101526.94;4990844;28;11000;-69
2023/05/15 05:22:15;;;;;;;;;32.00;31.00;;;;;12.69;71.20;101518.81;4978811;28;11023;-68
2023/05/15 05:24:41;;;;;;;;;35.75;32.50;;;;;12.74;70.96;101521.78;4971783;28;10841;-68
2023/05/15 05:27:07;;;;;;;;;45.50;35.25;;;;;12.80;70.99;101514.75;4990333;28;10450;-68
2023/05/15 05:29:34;;;;;;;;;44.50;37.00;;;;;12.85;70.78;101509.63;4990344;28;10938;-69
2023/05/15 05:32:00;;;;;;;;;28.25;28.25;;;;;12.87;70.64;101512.97;4990399;28;10866;-68
2023/05/15 05:34:27;;;;;;;;;34.75;27.25;;;;;12.86;70.50;101516.72;4990068;28;10722;-69
2023/05/15 05:36:54;;;;;;;;;38.25;34.75;;;;;12.85;70.52;101512.34;4989320;28;10844;-68
2023/05/15 05:39:20;;;;;;;;;30.50;28.25;;;;;12.85;70.64;101509.63;4990088;28;11482;-69
2023/05/15 05:41:47;;;;;;;;;38.25;33.75;;;;;12.87;70.68;101510.25;4977665;28;10665;-69
2023/05/15 05:44:13;;;;;;;;;30.50;25.25;;;;;12.91;70.74;101508.84;4989419;28;11464;-69
2023/05/15 05:46:39;;;;;;;;;30.50;27.75;;;;;12.96;70.51;101514.50;4990211;28;10547;-67
2023/05/15 05:49:06;;;;;;;;;30.75;29.25;;;;;13.03;70.81;101517.28;4990202;28;10663;-68
2023/05/15 05:51:35;;;;;;;;;28.50;25.50;;;;;13.05;70.60;101512.53;4990221;28;10724;-69
2023/05/15 05:54:02;;;;;;;;;33.75;30.50;;;;;13.05;70.22;101517.94;4989782;28;10576;-68
2023/05/15 05:56:28;;;;;;;;;33.50;32.25;;;;;12.96;70.65;101513.66;4976203;28;10904;-69
2023/05/15 05:58:55;;;;;;;;;31.25;26.25;;;;;12.94;70.90;101511.16;4990147;28;10610;-68
2023/05/15 06:01:22;;;;;;;;;40.00;38.25;;;;;12.98;70.74;101504.34;4982756;28;10741;-69
2023/05/15 06:03:48;;;;;;;;;31.25;28.25;;;;;12.94;70.77;101513.88;4989925;28;10710;-67
2023/05/15 06:06:14;;;;;;;;;33.50;31.75;;;;;12.97;70.83;101513.50;4972587;28;10553;-68
2023/05/15 06:08:41;;;;;;;;;37.00;33.25;;;;;13.00;70.59;101509.56;4990049;28;11362;-69
2023/05/15 06:11:07;;;;;;;;;34.50;32.25;;;;;12.98;70.69;101514.34;4989907;28;10892;-68
2023/05/15 06:13:34;;;;;;;;;28.00;25.50;;;;;12.97;70.71;101509.97;4984690;28;10737;-69
2023/05/15 06:16:01;;;;;;;;;31.00;27.25;;;;;12.94;70.84;101510.34;4972303;28;10488;-69
2023/05/15 06:18:27;;;;;;;;;30.50;29.00;;;;;12.94;71.08;101499.53;4990054;28;10598;-69
2023/05/15 06:20:54;;;;;;;;;30.75;29.25;;;;;12.89;71.01;101505.53;4993612;28;10678;-69
2023/05/15 06:23:20;;;;;;;;;28.25;27.75;;;;;12.91;71.04;101500.75;4991088;28;10669;-68
2023/05/15 06:25:49;;;;;;;;;27.00;23.25;;;;;12.94;71.32;101497.66;4988898;28;10665;-69
2023/05/15 06:28:16;;;;;;;;;20.75;18.50;;;;;13.00;71.11;101488.75;4989054;28;10502;-68
2023/05/15 06:30:42;;;;;;;;;27.50;23.50;;;;;13.07;70.94;101500.47;4974091;28;10982;-68
2023/05/15 06:33:09;;;;;;;;;26.00;19.50;;;;;13.14;70.75;101489.72;4992435;28;10569;-69
2023/05/15 06:35:36;;;;;;;;;32.00;25.75;;;;;13.17;70.72;101500.16;4998357;28;10339;-69
2023/05/15 06:38:02;;;;;;;;;33.00;28.00;;;;;13.19;70.58;101498.09;4990427;28;12754;-69
2023/05/15 06:40:29;;;;;;;;;31.75;28.75;;;;;13.23;70.57;101501.28;4992056;28;10586;-69
2023/05/15 06:42:55;;;;;;;;;28.50;25.50;;;;;13.26;70.44;101498.19;4992378;28;10416;-68
2023/05/15 06:45:22;;;;;;;;;32.50;28.75;;;;;13.30;70.78;101500.28;4992252;28;10595;-68
2023/05/15 06:47:49;;;;;;;;;25.75;23.25;;;;;13.37;70.46;101489.53;4992953;28;10621;-69
2023/05/15 06:50:15;;;;;;;;;22.25;22.00;;;;;13.40;70.47;101496.41;4972097;28;10285;-69
2023/05/15 06:52:41;;;;;;;;;23.50;21.50;;;;;13.43;70.44;101493.31;4990152;28;10340;-68
2023/05/15 06:55:08;;;;;;;;;23.50;23.00;;;;;13.48;70.32;101499.78;4972812;28;10407;-68
2023/05/15 06:57:35;;;;;;;;;25.75;24.50;;;;;13.54;70.26;101495.47;4987880;28;10438;-68
2023/05/15 07:00:01;;;;;;;;;27.75;18.25;;;;;13.61;70.00;101490.91;4989633;28;10375;-69
2023/05/15 07:02:27;;;;;;;;;29.25;28.75;;;;;13.68;69.80;101497.22;4971757;28;10309;-68
2023/05/15 07:04:54;;;;;;;;;31.75;26.50;;;;;13.66;69.89;101485.78;4985996;28;10592;-67
2023/05/15 07:07:21;;;;;;;;;24.75;23.75;;;;;13.63;69.79;101493.44;4979364;28;10553;-68
2023/05/15 07:09:49;;;;;;;;;21.00;20.25;;;;;13.60;69.77;101489.25;4984925;28;10946;-68
2023/05/15 07:12:15;;;;;;;;;29.75;24.25;;;;;13.61;70.24;101488.22;4987039;28;10080;-71
2023/05/15 07:14:42;;;;;;;;;25.50;21.25;;;;;13.62;70.35;101492.63;4989723;28;10085;-68
2023/05/15 07:17:08;;;;;;;;;28.75;25.50;;;;;13.65;70.01;101492.19;4992113;28;10103;-68
2023/05/15 07:19:35;;;;;;;;;26.25;24.00;;;;;13.60;69.81;101489.25;4991827;28;10311;-70
2023/05/15 07:22:01;;;;;;;;;30.25;28.50;;;;;13.59;70.24;101491.13;4991843;28;10442;-69
2023/05/15 07:24:29;;;;;;;;;25.25;22.00;;;;;13.64;70.27;101490.53;4988117;28;10386;-68
2023/05/15 07:26:55;;;;;;;;;27.00;25.50;;;;;13.68;69.91;101501.78;4989689;28;10094;-69
2023/05/15 07:29:24;;;;;;;;;40.25;33.25;;;;;13.56;69.99;101491.53;4989990;28;10551;-68
2023/05/15 07:31:51;;;;;;;;;36.50;34.25;;;;;13.53;71.20;101496.50;4991362;28;10594;-68
2023/05/15 07:34:18;;;;;;;;;29.00;26.00;;;;;13.60;71.35;101500.06;4987550;28;10476;-69
2023/05/15 07:36:44;;;;;;;;;28.25;24.00;;;;;13.70;71.02;101497.03;4991619;28;10423;-69
2023/05/15 07:39:11;;;;;;;;;28.00;27.50;;;;;13.79;70.64;101498.53;4990068;28;11058;-70
2023/05/15 07:41:37;;;;;;;;;40.75;35.00;;;;;13.81;70.29;101497.31;4990592;28;10311;-68
2023/05/15 07:44:04;;;;;;;;;33.25;27.50;;;;;13.84;70.14;101499.59;4990628;28;10438;-69
2023/05/15 07:46:32;;;;;;;;;31.75;31.75;;;;;13.88;70.34;101499.22;4972472;28;10412;-68
2023/05/15 07:48:58;;;;;;;;;32.50;29.25;;;;;13.91;70.32;101498.81;4989747;28;10393;-69
2023/05/15 07:51:25;;;;;;;;;30.00;29.25;;;;;13.91;69.96;101501.53;4991127;28;10355;-68
2023/05/15 07:53:51;;;;;;;;;36.50;34.25;;;;;13.84;70.51;101501.47;4985537;28;10257;-68
2023/05/15 07:56:18;;;;;;;;;34.50;31.00;;;;;13.85;70.74;101508.56;4989273;28;11138;-69
2023/05/15 07:58:44;;;;;;;;;24.75;23.50;;;;;13.86;70.79;101504.84;4985590;28;10435;-69
2023/05/15 08:01:11;;;;;;;;;33.75;26.75;;;;;13.83;70.83;101518.75;4985242;28;10282;-68
2023/05/15 08:03:37;;;;;;;;;32.50;28.75;;;;;13.83;71.19;101516.88;4971468;28;10255;-68
2023/05/15 08:06:04;;;;;;;;;32.75;31.25;;;;;13.83;71.05;101516.88;4989806;28;10196;-68
2023/05/15 08:08:31;;;;;;;;;35.75;33.50;;;;;13.80;71.25;101511.03;4990496;28;10322;-69
2023/05/15 08:10:57;;;;;;;;;39.50;32.00;;;;;13.72;71.18;101517.44;4990986;28;11228;-68
2023/05/15 08:13:23;;;;;;;;;41.25;35.50;;;;;13.63;71.55;101507.81;4969720;28;10374;-68
2023/05/15 08:15:50;;;;;;;;;34.00;33.00;;;;;13.64;72.24;101522.16;4987309;28;10773;-69
2023/05/15 08:18:16;;;;;;;;;41.00;37.00;;;;;13.69;72.16;101509.69;4993043;28;10700;-69
2023/05/15 08:20:43;;;;;;;;;49.25;40.00;;;;;13.73;72.21;101518.25;4973063;28;10807;-69
2023/05/15 08:23:09;;;;;;;;;50.25;40.00;;;;;13.76;72.11;101513.28;4990648;28;11673;-69
2023/05/15 08:25:38;;;;;;;;;49.25;40.25;;;;;13.79;71.81;101518.31;4989707;28;10732;-69
2023/05/15 08:28:05;;;;;;;;;57.50;44.50;;;;;13.81;71.94;101513.56;4990606;28;11695;-69
2023/05/15 08:30:31;;;;;;;;;41.50;37.75;;;;;13.84;71.85;101515.00;4989333;28;10887;-69
2023/05/15 08:32:57;;;;;;;;;53.00;39.25;;;;;13.83;71.98;101516.88;4990342;28;10577;-69
2023/05/15 08:35:24;;;;;;;;;49.75;43.50;;;;;13.78;71.68;101519.34;4988615;28;10430;-69
2023/05/15 08:37:51;;;;;;;;;51.00;42.75;;;;;13.76;72.27;101512.47;4972121;28;10993;-69
2023/05/15 08:40:17;;;;;;;;;48.50;41.00;;;;;13.80;72.41;101517.28;4990652;28;11039;-69
2023/05/15 08:43:02;;;;;;;;;48.75;39.00;;;;;13.83;72.17;101516.06;4988543;28;10824;-70
2023/05/15 08:45:29;;;;;;;;;48.75;40.00;;;;;13.85;72.01;101525.66;4988002;28;10750;-69
2023/05/15 08:47:58;;;;;;;;;52.50;43.50;;;;;13.85;72.37;101522.94;4988587;28;10674;-70
2023/05/15 08:50:25;;;;;;;;;52.25;42.00;;;;;13.86;72.62;101521.06;4987213;28;10846;-69
2023/05/15 08:52:57;;;;;;;;;55.00;42.50;;;;;13.87;71.95;101517.31;4984376;28;11393;-69
2023/05/15 08:55:23;;;;;;;;;53.75;41.25;;;;;13.81;72.53;101516.25;4988069;28;10873;-70
2023/05/15 08:57:50;;;;;;;;;54.75;42.75;;;;;13.81;72.98;101513.56;4972065;28;10693;-69
2023/05/15 09:00:19;;;;;;;;;54.75;42.00;;;;;13.83;72.34;101519.59;4988663;28;11642;-68
2023/05/15 09:02:46;;;;;;;;;54.00;43.50;;;;;13.82;72.82;101515.22;4989854;28;11105;-68
2023/05/15 09:05:12;;;;;;;;;56.75;44.25;;;;;13.83;72.66;101514.19;4989549;28;10858;-69
2023/05/15 09:07:41;;;;;;;;;40.25;38.50;;;;;13.88;72.56;101515.44;4989759;28;11536;-69
2023/05/15 09:10:08;;;;;;;;;52.50;40.00;;;;;13.91;72.39;101515.88;4989913;28;10675;-68
2023/05/15 09:12:40;;;;;;;;;47.75;40.50;;;;;13.92;71.93;101514.84;4990128;28;10672;-69
2023/05/15 09:15:10;;;;;;;;;51.00;41.25;;;;;13.87;72.22;101517.31;4989339;28;11572;-69
2023/05/15 09:17:37;;;;;;;;;39.25;37.75;;;;;13.87;72.70;101514.63;4990155;28;10753;-69
2023/05/15 09:20:07;;;;;;;;;43.75;40.50;;;;;13.92;72.86;101517.56;4990144;28;10783;-68
2023/05/15 09:22:36;;;;;;;;;46.50;39.50;;;;;13.97;72.78;101516.94;4990001;28;10823;-68
2023/05/15 09:25:03;;;;;;;;;43.25;38.50;;;;;14.00;72.66;101530.09;4989593;28;11029;-69
2023/05/15 09:27:39;;;;;;;;;53.00;44.50;;;;;14.01;72.72;101524.47;4989471;28;10900;-68
2023/05/15 09:30:09;;;;;;;;;41.50;34.75;;;;;14.05;72.82;101524.91;4990181;28;11148;-69
2023/05/15 09:32:37;;;;;;;;;44.75;39.25;;;;;14.08;72.67;101529.94;4989062;28;10691;-69
2023/05/15 09:35:04;;;;;;;;;44.75;38.75;;;;;14.08;72.28;101524.50;4989279;28;10972;-69
2023/05/15 09:37:32;;;;;;;;;39.00;35.50;;;;;14.07;72.25;101526.38;4989959;28;10580;-69
2023/05/15 09:40:09;;;;;;;;;40.25;35.75;;;;;14.07;72.48;101530.97;4989592;28;10845;-69
2023/05/15 09:42:37;;;;;;;;;41.00;31.75;;;;;14.06;72.36;101522.03;4989857;28;10607;-69
2023/05/15 09:45:04;;;;;;;;;37.50;34.50;;;;;14.03;72.78;101527.00;4989381;28;10532;-69
2023/05/15 09:47:31;;;;;;;;;34.25;30.00;;;;;14.05;72.76;101524.91;4989871;28;10703;-69
2023/05/15 09:49:58;;;;;;;;;36.75;31.50;;;;;14.04;72.93;101520.53;4989529;28;10495;-69
2023/05/15 09:52:26;;;;;;;;;38.50;30.50;;;;;14.02;72.91;101520.75;4989775;28;10568;-70
2023/05/15 09:54:53;;;;;;;;;34.50;33.75;;;;;14.03;72.97;101522.41;4993034;28;10596;-69
2023/05/15 09:57:21;;;;;;;;;30.75;25.00;;;;;14.04;73.13;101526.78;4993648;28;10351;-68
2023/05/15 09:59:48;;;;;;;;;27.75;27.00;;;;;14.05;73.06;101533.84;4993216;28;10393;-69
2023/05/15 10:02:34;;;;;;;;;34.25;26.75;;;;;14.06;73.14;101532.00;4993449;28;10187;-68
2023/05/15 10:05:00;;;;;;;;;24.50;23.75;;;;;14.06;72.97;101532.84;4991625;28;10197;-69
2023/05/15 10:07:32;;;;;;;;;31.25;30.25;;;;;14.03;72.98;101527.81;4975976;28;10257;-68
2023/05/15 10:10:01;;;;;;;;;30.75;30.75;;;;;14.03;72.93;101524.28;4992816;28;10538;-69
2023/05/15 10:12:28;;;;;;;;;36.00;33.50;;;;;14.01;73.14;101523.63;4993284;28;10540;-69
2023/05/15 10:14:56;;;;;;;;;30.25;28.25;;;;;14.03;73.19;101524.28;4993108;28;10432;-69
2023/05/15 10:17:23;;;;;;;;;35.25;30.75;;;;;14.03;73.04;101525.13;4992964;28;11201;-69
2023/05/15 10:19:50;;;;;;;;;32.25;30.50;;;;;14.08;72.51;101528.06;4992932;28;10515;-69
2023/05/15 10:22:23;;;;;;;;;41.50;35.25;;;;;14.09;72.55;101527.00;4993084;28;10454;-69
2023/05/15 10:25:16;;;;;;;;;34.75;29.75;;;;;14.13;72.50;101522.03;4992589;28;10681;-69
2023/05/15 10:27:45;;;;;;;;;37.50;31.25;;;;;14.16;72.67;101529.75;4972251;28;11272;-69
2023/05/15 10:30:15;;;;;;;;;36.50;30.75;;;;;14.15;72.27;101524.56;4991149;28;11388;-70
2023/05/15 10:32:45;;;;;;;;;40.75;35.75;;;;;14.18;72.25;101533.13;4974943;28;10444;-71
2023/05/15 10:35:11;;;;;;;;;34.50;32.00;;;;;14.17;72.33;101528.72;4990975;28;10603;-69
2023/05/15 10:37:38;;;;;;;;;42.00;35.50;;;;;14.17;72.12;101534.13;4992777;28;10616;-69
2023/05/15 10:40:07;;;;;;;;;36.50;33.50;;;;;14.19;72.13;101528.53;4987707;28;10741;-70
2023/05/15 10:42:35;;;;;;;;;39.25;32.75;;;;;14.21;72.26;101526.44;4991113;28;10507;-69
2023/05/15 10:45:02;;;;;;;;;30.75;29.75;;;;;14.18;72.27;101529.53;4990450;28;10428;-70
2023/05/15 10:47:29;;;;;;;;;31.25;29.75;;;;;14.20;72.19;101531.03;4992225;28;10552;-68
2023/05/15 10:49:57;;;;;;;;;34.75;27.50;;;;;14.20;72.09;101527.47;4991529;28;10363;-68
2023/05/15 10:52:23;;;;;;;;;31.25;28.25;;;;;14.19;72.34;101531.25;4992640;28;10576;-70
2023/05/15 10:54:52;;;;;;;;;29.50;28.25;;;;;14.17;72.61;101520.59;4990669;28;10481;-70
2023/05/15 10:57:21;;;;;;;;;25.00;23.00;;;;;14.23;72.58;101521.69;4992106;28;10340;-69
2023/05/15 10:59:48;;;;;;;;;21.50;20.25;;;;;14.30;72.69;101515.25;4971722;28;10190;-69
2023/05/15 11:02:22;;;;;;;;;32.25;32.25;;;;;14.35;71.86;101515.47;4990827;28;10259;-69
2023/05/15 11:05:00;;;;;;;;;30.50;28.50;;;;;14.41;72.08;101515.69;4983710;28;10345;-68
2023/05/15 11:07:27;;;;;;;;;45.50;38.00;;;;;14.41;71.47;101508.41;4974045;28;10331;-69
2023/05/15 11:09:55;;;;;;;;;34.25;34.25;;;;;14.42;71.71;101510.09;4989593;28;10642;-69
2023/05/15 11:12:22;;;;;;;;;33.00;30.50;;;;;14.46;71.66;101510.50;4991915;28;10361;-69
2023/05/15 11:14:55;;;;;;;;;31.75;29.00;;;;;14.54;71.55;101518.47;4991587;28;10289;-69